Terminal Aerodrome Forecast
Issued by NWS Topeka, KS

Home | Current Version | Previous Version | Text Only | Print | Product List | Glossary On
Versions: 1 2 3 4 5 6 7 8 9 10 11 12 13 14 15 16
000
FTUS43 KTOP 241734
TAFTOP
TAF
KTOP 241734Z 2418/2518 01006KT P6SM BKN150
     FM242300 04006KT P6SM VCTS SCT060CB BKN150
     FM250700 03006KT P6SM BKN200
     FM251200 06011KT P6SM SCT020 BKN200=

USA.gov is the U.S. government's official web portal to all federal, state and local government web resources and services.